Terminal Aerodrome Forecast
Issued by NWS

Home | Current Version | Previous Version | Graphics & Text | Print | Product List | Glossary On
Versions: 1 2 3 4 5 6 7 8 9 10 11 12 13 14 15 16
000
FTUS43 KTOP 231900 AAA
TAFFOE
TAF AMD
KFOE 231910Z 2319/2418 28010KT 3SM -SHRA BR BKN006 OVC015
     FM232000 32020G29KT 3SM -RA BR OVC020
     FM240600 32018G24KT P6SM BKN035=

USA.gov is the U.S. government's official web portal to all federal, state and local government web resources and services.